sensor_id;sensor_type;location;lat;lon;timestamp;pressure;altitude;pressure_sealevel;temperature;humidity
73240;BME280;61452;40.054;4.110;2024-02-14T00:04:58;102567.59;;;15.55;100.00
73240;BME280;61452;40.054;4.110;2024-02-14T00:10:00;102567.66;;;15.53;100.00
73240;BME280;61452;40.054;4.110;2024-02-14T00:15:03;102561.44;;;15.54;100.00
73240;BME280;61452;40.054;4.110;2024-02-14T00:20:06;102559.66;;;15.55;100.00
73240;BME280;61452;40.054;4.110;2024-02-14T00:25:08;102564.00;;;15.56;100.00
73240;BME280;61452;40.054;4.110;2024-02-14T00:30:11;102565.88;;;15.54;100.00
73240;BME280;61452;40.054;4.110;2024-02-14T00:35:13;102571.16;;;15.54;100.00
73240;BME280;61452;40.054;4.110;2024-02-14T00:40:16;102565.88;;;15.54;100.00
73240;BME280;61452;40.054;4.110;2024-02-14T00:45:18;102560.63;;;15.52;100.00
73240;BME280;61452;40.054;4.110;2024-02-14T00:50:20;102566.78;;;15.53;100.00
73240;BME280;61452;40.054;4.110;2024-02-14T00:55:22;102578.16;;;15.55;100.00
73240;BME280;61452;40.054;4.110;2024-02-14T01:00:24;102563.34;;;15.49;100.00
73240;BME280;61452;40.054;4.110;2024-02-14T01:05:27;102567.66;;;15.52;100.00
73240;BME280;61452;40.054;4.110;2024-02-14T01:10:29;102569.44;;;15.51;100.00
73240;BME280;61452;40.054;4.110;2024-02-14T01:15:31;102579.09;;;15.54;100.00
73240;BME280;61452;40.054;4.110;2024-02-14T01:20:33;102587.03;;;15.54;100.00
73240;BME280;61452;40.054;4.110;2024-02-14T01:25:35;102590.59;;;15.53;100.00
73240;BME280;61452;40.054;4.110;2024-02-14T01:30:37;102597.69;;;15.51;100.00
73240;BME280;61452;40.054;4.110;2024-02-14T01:35:39;102601.25;;;15.50;100.00
73240;BME280;61452;40.054;4.110;2024-02-14T01:40:43;102601.19;;;15.51;100.00
73240;BME280;61452;40.054;4.110;2024-02-14T01:45:46;102595.94;;;15.50;100.00
73240;BME280;61452;40.054;4.110;2024-02-14T01:50:48;102581.81;;;15.51;100.00
73240;BME280;61452;40.054;4.110;2024-02-14T01:55:51;102577.44;;;15.50;100.00
73240;BME280;61452;40.054;4.110;2024-02-14T02:00:54;102578.50;;;15.46;100.00
73240;BME280;61452;40.054;4.110;2024-02-14T02:06:01;102577.53;;;15.48;100.00
73240;BME280;61452;40.054;4.110;2024-02-14T02:11:03;102572.97;;;15.52;100.00
73240;BME280;61452;40.054;4.110;2024-02-14T02:16:07;102558.00;;;15.51;100.00
73240;BME280;61452;40.054;4.110;2024-02-14T02:21:09;102559.88;;;15.49;100.00
73240;BME280;61452;40.054;4.110;2024-02-14T02:26:14;102560.78;;;15.48;100.00
73240;BME280;61452;40.054;4.110;2024-02-14T02:31:17;102559.94;;;15.47;100.00
73240;BME280;61452;40.054;4.110;2024-02-14T02:36:19;102553.78;;;15.47;100.00
73240;BME280;61452;40.054;4.110;2024-02-14T02:41:21;102549.34;;;15.47;100.00
73240;BME280;61452;40.054;4.110;2024-02-14T02:46:23;102543.19;;;15.47;100.00
73240;BME280;61452;40.054;4.110;2024-02-14T02:51:27;102550.22;;;15.48;100.00
73240;BME280;61452;40.054;4.110;2024-02-14T02:56:29;102548.50;;;15.47;100.00
73240;BME280;61452;40.054;4.110;2024-02-14T03:01:35;102548.53;;;15.45;100.00
73240;BME280;61452;40.054;4.110;2024-02-14T03:06:37;102547.63;;;15.46;100.00
73240;BME280;61452;40.054;4.110;2024-02-14T03:11:40;102543.25;;;15.45;100.00
73240;BME280;61452;40.054;4.110;2024-02-14T03:16:42;102547.56;;;15.48;100.00
73240;BME280;61452;40.054;4.110;2024-02-14T03:21:44;102545.84;;;15.47;100.00
73240;BME280;61452;40.054;4.110;2024-02-14T03:26:48;102545.03;;;15.45;100.00
73240;BME280;61452;40.054;4.110;2024-02-14T03:31:53;102548.75;;;15.41;100.00
73240;BME280;61452;40.054;4.110;2024-02-14T03:36:55;102540.81;;;15.41;100.00
73240;BME280;61452;40.054;4.110;2024-02-14T03:41:57;102564.41;;;15.45;100.00
73240;BME280;61452;40.054;4.110;2024-02-14T03:47:03;102568.84;;;15.45;100.00
73240;BME280;61452;40.054;4.110;2024-02-14T03:52:06;102576.81;;;15.43;100.00
73240;BME280;61452;40.054;4.110;2024-02-14T03:57:11;102575.13;;;15.42;100.00
73240;BME280;61452;40.054;4.110;2024-02-14T04:02:14;102564.59;;;15.41;100.00
73240;BME280;61452;40.054;4.110;2024-02-14T04:07:16;102559.38;;;15.39;100.00
73240;BME280;61452;40.054;4.110;2024-02-14T04:12:19;102554.06;;;15.39;100.00
73240;BME280;61452;40.054;4.110;2024-02-14T04:17:22;102563.69;;;15.42;100.00
73240;BME280;61452;40.054;4.110;2024-02-14T04:22:24;102562.88;;;15.39;100.00
73240;BME280;61452;40.054;4.110;2024-02-14T04:27:27;102563.69;;;15.42;100.00
73240;BME280;61452;40.054;4.110;2024-02-14T04:32:29;102572.59;;;15.39;100.00
73240;BME280;61452;40.054;4.110;2024-02-14T04:37:32;102576.09;;;15.39;100.00
73240;BME280;61452;40.054;4.110;2024-02-14T04:42:34;102580.53;;;15.39;100.00
73240;BME280;61452;40.054;4.110;2024-02-14T04:47:37;102586.69;;;15.39;100.00
73240;BME280;61452;40.054;4.110;2024-02-14T04:52:39;102589.25;;;15.41;100.00
73240;BME280;61452;40.054;4.110;2024-02-14T04:57:41;102591.03;;;15.41;100.00
73240;BME280;61452;40.054;4.110;2024-02-14T05:02:43;102590.19;;;15.40;100.00
73240;BME280;61452;40.054;4.110;2024-02-14T05:07:45;102583.16;;;15.39;100.00
73240;BME280;61452;40.054;4.110;2024-02-14T05:12:48;102584.94;;;15.38;100.00
73240;BME280;61452;40.054;4.110;2024-02-14T05:17:51;102584.94;;;15.38;100.00
73240;BME280;61452;40.054;4.110;2024-02-14T05:22:53;102582.25;;;15.40;100.00
73240;BME280;61452;40.054;4.110;2024-02-14T05:27:56;102584.03;;;15.39;100.00
73240;BME280;61452;40.054;4.110;2024-02-14T05:32:58;102582.31;;;15.38;100.00
73240;BME280;61452;40.054;4.110;2024-02-14T05:38:00;102583.31;;;15.36;100.00
73240;BME280;61452;40.054;4.110;2024-02-14T05:43:02;102577.16;;;15.35;100.00
73240;BME280;61452;40.054;4.110;2024-02-14T05:48:05;102577.88;;;15.39;100.00
73240;BME280;61452;40.054;4.110;2024-02-14T05:53:08;102584.09;;;15.38;100.00
73240;BME280;61452;40.054;4.110;2024-02-14T05:58:10;102580.53;;;15.39;100.00
73240;BME280;61452;40.054;4.110;2024-02-14T06:03:12;102583.22;;;15.37;100.00
73240;BME280;61452;40.054;4.110;2024-02-14T06:08:14;102581.56;;;15.35;100.00
73240;BME280;61452;40.054;4.110;2024-02-14T06:13:16;102579.84;;;15.34;100.00
73240;BME280;61452;40.054;4.110;2024-02-14T06:18:18;102582.53;;;15.32;100.00
73240;BME280;61452;40.054;4.110;2024-02-14T06:23:20;102591.28;;;15.34;100.00
73240;BME280;61452;40.054;4.110;2024-02-14T06:28:22;102600.94;;;15.35;100.00
73240;BME280;61452;40.054;4.110;2024-02-14T06:33:24;102603.59;;;15.35;100.00
73240;BME280;61452;40.054;4.110;2024-02-14T06:38:27;102604.50;;;15.34;100.00
73240;BME280;61452;40.054;4.110;2024-02-14T06:43:29;102613.34;;;15.33;100.00
73240;BME280;61452;40.054;4.110;2024-02-14T06:48:31;102616.91;;;15.32;100.00
73240;BME280;61452;40.054;4.110;2024-02-14T06:53:33;102627.50;;;15.32;100.00
73240;BME280;61452;40.054;4.110;2024-02-14T06:58:37;102636.28;;;15.33;100.00
73240;BME280;61452;40.054;4.110;2024-02-14T07:03:39;102647.72;;;15.33;100.00
73240;BME280;61452;40.054;4.110;2024-02-14T07:08:43;102647.72;;;15.33;100.00
73240;BME280;61452;40.054;4.110;2024-02-14T07:13:45;102658.31;;;15.33;100.00
73240;BME280;61452;40.054;4.110;2024-02-14T07:18:47;102656.56;;;15.32;100.00
73240;BME280;61452;40.054;4.110;2024-02-14T07:23:50;102644.28;;;15.31;100.00
73240;BME280;61452;40.054;4.110;2024-02-14T07:28:52;102653.16;;;15.30;100.00
73240;BME280;61452;40.054;4.110;2024-02-14T07:33:54;102647.09;;;15.27;100.00
73240;BME280;61452;40.054;4.110;2024-02-14T07:38:57;102656.63;;;15.31;100.00
73240;BME280;61452;40.054;4.110;2024-02-14T07:43:59;102667.16;;;15.32;100.00
73240;BME280;61452;40.054;4.110;2024-02-14T07:49:01;102664.63;;;15.29;100.00
73240;BME280;61452;40.054;4.110;2024-02-14T07:54:03;102676.13;;;15.28;100.00
73240;BME280;61452;40.054;4.110;2024-02-14T07:59:06;102684.00;;;15.30;100.00
73240;BME280;61452;40.054;4.110;2024-02-14T08:04:08;102684.00;;;15.30;100.00
73240;BME280;61452;40.054;4.110;2024-02-14T08:09:10;102691.00;;;15.31;100.00
73240;BME280;61452;40.054;4.110;2024-02-14T08:14:12;102695.44;;;15.30;100.00
73240;BME280;61452;40.054;4.110;2024-02-14T08:19:14;102692.84;;;15.29;100.00
73240;BME280;61452;40.054;4.110;2024-02-14T08:24:17;102696.47;;;15.26;100.00
73240;BME280;61452;40.054;4.110;2024-02-14T08:29:20;102701.66;;;15.29;100.00
73240;BME280;61452;40.054;4.110;2024-02-14T08:34:22;102708.66;;;15.30;100.00
73240;BME280;61452;40.054;4.110;2024-02-14T08:39:25;102712.09;;;15.32;100.00
73240;BME280;61452;40.054;4.110;2024-02-14T08:44:28;102706.06;;;15.29;100.00
73240;BME280;61452;40.054;4.110;2024-02-14T08:49:30;102705.25;;;15.27;100.00
73240;BME280;61452;40.054;4.110;2024-02-14T08:54:32;102712.28;;;15.28;100.00
73240;BME280;61452;40.054;4.110;2024-02-14T08:59:34;102708.72;;;15.29;100.00
73240;BME280;61452;40.054;4.110;2024-02-14T09:04:36;102707.81;;;15.30;100.00
73240;BME280;61452;40.054;4.110;2024-02-14T09:09:39;102712.22;;;15.29;100.00
73240;BME280;61452;40.054;4.110;2024-02-14T09:14:41;102718.31;;;15.31;100.00
73240;BME280;61452;40.054;4.110;2024-02-14T09:19:43;102726.31;;;15.30;100.00
73240;BME280;61452;40.054;4.110;2024-02-14T09:24:45;102722.81;;;15.29;100.00
73240;BME280;61452;40.054;4.110;2024-02-14T09:29:47;102727.41;;;15.24;100.00
73240;BME280;61452;40.054;4.110;2024-02-14T09:34:49;102729.91;;;15.27;100.00
73240;BME280;61452;40.054;4.110;2024-02-14T09:39:52;102729.88;;;15.29;100.00
73240;BME280;61452;40.054;4.110;2024-02-14T09:44:58;102730.72;;;15.29;100.00
73240;BME280;61452;40.054;4.110;2024-02-14T09:50:03;102729.00;;;15.28;100.00
73240;BME280;61452;40.054;4.110;2024-02-14T09:55:09;102724.63;;;15.27;100.00
73240;BME280;61452;40.054;4.110;2024-02-14T10:00:12;102732.50;;;15.29;100.00
73240;BME280;61452;40.054;4.110;2024-02-14T10:05:16;102735.22;;;15.27;100.00
73240;BME280;61452;40.054;4.110;2024-02-14T10:10:18;102733.53;;;15.25;100.00
73240;BME280;61452;40.054;4.110;2024-02-14T10:15:22;102749.34;;;15.26;100.00
73240;BME280;61452;40.054;4.110;2024-02-14T10:20:24;102748.38;;;15.29;100.00
73240;BME280;61452;40.054;4.110;2024-02-14T10:25:28;102745.78;;;15.27;100.00
73240;BME280;61452;40.054;4.110;2024-02-14T10:30:30;102737.00;;;15.27;100.00
73240;BME280;61452;40.054;4.110;2024-02-14T10:35:35;102738.66;;;15.29;100.00
73240;BME280;61452;40.054;4.110;2024-02-14T10:40:39;102736.81;;;15.31;100.00
73240;BME280;61452;40.054;4.110;2024-02-14T10:45:41;102735.09;;;15.30;100.00
73240;BME280;61452;40.054;4.110;2024-02-14T10:50:44;102734.25;;;15.30;100.00
73240;BME280;61452;40.054;4.110;2024-02-14T10:55:49;102744.00;;;15.28;100.00
73240;BME280;61452;40.054;4.110;2024-02-14T11:00:51;102742.22;;;15.28;100.00
73240;BME280;61452;40.054;4.110;2024-02-14T11:05:53;102733.28;;;15.31;100.00
73240;BME280;61452;40.054;4.110;2024-02-14T11:11:03;102723.66;;;15.30;100.00
73240;BME280;61452;40.054;4.110;2024-02-14T11:16:05;102718.44;;;15.28;100.00
73240;BME280;61452;40.054;4.110;2024-02-14T11:21:16;102719.25;;;15.30;100.00
73240;BME280;61452;40.054;4.110;2024-02-14T11:26:21;102710.44;;;15.30;100.00
73240;BME280;61452;40.054;4.110;2024-02-14T11:31:32;102698.94;;;15.31;100.00
73240;BME280;61452;40.054;4.110;2024-02-14T11:36:35;102693.59;;;15.32;100.00
73240;BME280;61452;40.054;4.110;2024-02-14T11:41:38;102675.94;;;15.33;100.00
73240;BME280;61452;40.054;4.110;2024-02-14T11:46:40;102682.09;;;15.33;100.00
73240;BME280;61452;40.054;4.110;2024-02-14T11:51:43;102681.28;;;15.31;100.00
73240;BME280;61452;40.054;4.110;2024-02-14T11:56:46;102676.06;;;15.30;100.00
73240;BME280;61452;40.054;4.110;2024-02-14T12:01:48;102676.88;;;15.32;100.00
73240;BME280;61452;40.054;4.110;2024-02-14T12:06:53;102671.66;;;15.30;100.00
73240;BME280;61452;40.054;4.110;2024-02-14T12:11:56;102665.38;;;15.33;100.00
73240;BME280;61452;40.054;4.110;2024-02-14T12:17:02;102650.31;;;15.35;100.00
73240;BME280;61452;40.054;4.110;2024-02-14T12:22:10;102646.81;;;15.34;100.00
73240;BME280;61452;40.054;4.110;2024-02-14T12:27:19;102651.09;;;15.37;100.00
73240;BME280;61452;40.054;4.110;2024-02-14T12:32:22;102645.13;;;15.32;100.00
73240;BME280;61452;40.054;4.110;2024-02-14T12:37:24;102634.47;;;15.35;100.00
73240;BME280;61452;40.054;4.110;2024-02-14T12:42:26;102631.00;;;15.33;100.00
73240;BME280;61452;40.054;4.110;2024-02-14T12:47:29;102615.03;;;15.36;100.00
73240;BME280;61452;40.054;4.110;2024-02-14T12:52:35;102607.97;;;15.36;100.00
73240;BME280;61452;40.054;4.110;2024-02-14T12:57:37;102593.00;;;15.35;100.00
73240;BME280;61452;40.054;4.110;2024-02-14T13:02:39;102588.50;;;15.37;100.00
73240;BME280;61452;40.054;4.110;2024-02-14T13:07:42;102580.66;;;15.36;100.00
73240;BME280;61452;40.054;4.110;2024-02-14T13:12:44;102578.88;;;15.36;100.00
73240;BME280;61452;40.054;4.110;2024-02-14T13:17:47;102568.22;;;15.38;100.00
73240;BME280;61452;40.054;4.110;2024-02-14T13:22:50;102557.59;;;15.39;100.00
73240;BME280;61452;40.054;4.110;2024-02-14T13:27:52;102554.88;;;15.41;100.00
73240;BME280;61452;40.054;4.110;2024-02-14T13:32:56;102550.56;;;15.38;100.00
73240;BME280;61452;40.054;4.110;2024-02-14T13:37:58;102545.28;;;15.38;100.00
73240;BME280;61452;40.054;4.110;2024-02-14T13:43:01;102558.44;;;15.40;100.00
73240;BME280;61452;40.054;4.110;2024-02-14T13:48:03;102545.19;;;15.42;100.00
73240;BME280;61452;40.054;4.110;2024-02-14T13:53:06;102546.81;;;15.44;100.00
73240;BME280;61452;40.054;4.110;2024-02-14T13:58:09;102540.75;;;15.42;100.00
73240;BME280;61452;40.054;4.110;2024-02-14T14:03:18;102539.88;;;15.42;100.00
73240;BME280;61452;40.054;4.110;2024-02-14T14:08:20;102541.53;;;15.44;100.00
73240;BME280;61452;40.054;4.110;2024-02-14T14:13:23;102537.25;;;15.42;100.00
73240;BME280;61452;40.054;4.110;2024-02-14T14:18:25;102545.09;;;15.43;100.00
73240;BME280;61452;40.054;4.110;2024-02-14T14:23:27;102542.38;;;15.45;100.00
73240;BME280;61452;40.054;4.110;2024-02-14T14:28:29;102541.53;;;15.44;100.00
73240;BME280;61452;40.054;4.110;2024-02-14T14:33:33;102537.91;;;15.47;100.00
73240;BME280;61452;40.054;4.110;2024-02-14T14:38:36;102540.56;;;15.47;100.00
73240;BME280;61452;40.054;4.110;2024-02-14T14:43:38;102545.09;;;15.43;100.00
73240;BME280;61452;40.054;4.110;2024-02-14T14:48:41;102536.25;;;15.44;100.00
73240;BME280;61452;40.054;4.110;2024-02-14T14:53:43;102537.09;;;15.45;100.00
73240;BME280;61452;40.054;4.110;2024-02-14T14:58:45;102538.78;;;15.47;100.00
73240;BME280;61452;40.054;4.110;2024-02-14T15:03:47;102543.00;;;15.51;100.00
73240;BME280;61452;40.054;4.110;2024-02-14T15:08:49;102544.84;;;15.49;100.00
73240;BME280;61452;40.054;4.110;2024-02-14T15:13:51;102538.56;;;15.52;100.00
73240;BME280;61452;40.054;4.110;2024-02-14T15:18:53;102535.22;;;15.48;100.00
73240;BME280;61452;40.054;4.110;2024-02-14T15:23:56;102547.47;;;15.49;100.00
73240;BME280;61452;40.054;4.110;2024-02-14T15:28:58;102550.06;;;15.52;100.00
73240;BME280;61452;40.054;4.110;2024-02-14T15:34:20;102545.56;;;15.54;100.00
73240;BME280;61452;40.054;4.110;2024-02-14T15:39:22;102557.88;;;15.55;100.00
73240;BME280;61452;40.054;4.110;2024-02-14T15:44:25;102555.22;;;15.55;100.00
73240;BME280;61452;40.054;4.110;2024-02-14T15:49:27;102554.41;;;15.53;100.00
73240;BME280;61452;40.054;4.110;2024-02-14T15:54:31;102541.19;;;15.53;100.00
73240;BME280;61452;40.054;4.110;2024-02-14T15:59:33;102549.00;;;15.56;100.00
73240;BME280;61452;40.054;4.110;2024-02-14T16:04:36;102548.13;;;15.56;100.00
73240;BME280;61452;40.054;4.110;2024-02-14T16:09:38;102551.56;;;15.58;100.00
73240;BME280;61452;40.054;4.110;2024-02-14T16:14:42;102544.66;;;15.55;100.00
73240;BME280;61452;40.054;4.110;2024-02-14T16:19:44;102548.22;;;15.54;100.00
73240;BME280;61452;40.054;4.110;2024-02-14T16:24:46;102551.53;;;15.59;100.00
73240;BME280;61452;40.054;4.110;2024-02-14T16:29:51;102540.03;;;15.60;100.00
73240;BME280;61452;40.054;4.110;2024-02-14T16:34:53;102546.19;;;15.61;100.00
73240;BME280;61452;40.054;4.110;2024-02-14T16:39:55;102559.41;;;15.61;100.00
73240;BME280;61452;40.054;4.110;2024-02-14T16:44:58;102545.47;;;15.56;100.00
73240;BME280;61452;40.054;4.110;2024-02-14T16:50:00;102548.88;;;15.59;100.00
73240;BME280;61452;40.054;4.110;2024-02-14T16:55:02;102543.53;;;15.61;100.00
73240;BME280;61452;40.054;4.110;2024-02-14T17:00:05;102548.69;;;15.64;100.00
73240;BME280;61452;40.054;4.110;2024-02-14T17:05:08;102554.88;;;15.63;100.00
73240;BME280;61452;40.054;4.110;2024-02-14T17:10:10;102557.63;;;15.61;100.00
73240;BME280;61452;40.054;4.110;2024-02-14T17:15:13;102555.94;;;15.59;100.00
73240;BME280;61452;40.054;4.110;2024-02-14T17:20:15;102561.09;;;15.62;100.00
73240;BME280;61452;40.054;4.110;2024-02-14T17:25:17;102559.25;;;15.64;100.00
73240;BME280;61452;40.054;4.110;2024-02-14T17:30:20;102560.19;;;15.63;100.00
73240;BME280;61452;40.054;4.110;2024-02-14T17:35:24;102566.28;;;15.65;100.00
73240;BME280;61452;40.054;4.110;2024-02-14T17:40:26;102562.78;;;15.64;100.00
73240;BME280;61452;40.054;4.110;2024-02-14T17:45:28;102566.38;;;15.62;100.00
73240;BME280;61452;40.054;4.110;2024-02-14T17:50:30;102566.34;;;15.63;100.00
73240;BME280;61452;40.054;4.110;2024-02-14T17:55:33;102570.84;;;15.61;100.00
73240;BME280;61452;40.054;4.110;2024-02-14T18:00:35;102581.34;;;15.63;100.00
73240;BME280;61452;40.054;4.110;2024-02-14T18:05:38;102575.13;;;15.64;100.00
73240;BME280;61452;40.054;4.110;2024-02-14T18:10:42;102569.78;;;15.65;100.00
73240;BME280;61452;40.054;4.110;2024-02-14T18:15:45;102574.22;;;15.65;100.00
73240;BME280;61452;40.054;4.110;2024-02-14T18:20:49;102569.91;;;15.62;100.00
73240;BME280;61452;40.054;4.110;2024-02-14T18:25:51;102561.09;;;15.62;100.00
73240;BME280;61452;40.054;4.110;2024-02-14T18:30:53;102565.41;;;15.64;100.00
73240;BME280;61452;40.054;4.110;2024-02-14T18:35:55;102564.50;;;15.65;100.00
73240;BME280;61452;40.054;4.110;2024-02-14T18:40:58;102568.88;;;15.66;100.00
73240;BME280;61452;40.054;4.110;2024-02-14T18:46:03;102573.28;;;15.66;100.00
73240;BME280;61452;40.054;4.110;2024-02-14T18:51:06;102574.28;;;15.63;100.00
73240;BME280;61452;40.054;4.110;2024-02-14T18:56:08;102558.44;;;15.62;100.00
73240;BME280;61452;40.054;4.110;2024-02-14T19:01:10;102577.72;;;15.65;100.00
73240;BME280;61452;40.054;4.110;2024-02-14T19:06:14;102572.44;;;15.65;100.00
73240;BME280;61452;40.054;4.110;2024-02-14T19:11:17;102560.94;;;15.66;100.00
73240;BME280;61452;40.054;4.110;2024-02-14T19:16:20;102563.63;;;15.65;100.00
73240;BME280;61452;40.054;4.110;2024-02-14T19:21:29;102572.44;;;15.65;100.00
73240;BME280;61452;40.054;4.110;2024-02-14T19:26:33;102580.22;;;15.68;100.00
73240;BME280;61452;40.054;4.110;2024-02-14T19:31:35;102573.25;;;15.67;100.00
73240;BME280;61452;40.054;4.110;2024-02-14T19:36:37;102574.03;;;15.69;100.00
73240;BME280;61452;40.054;4.110;2024-02-14T19:41:39;102569.72;;;15.67;100.00
73240;BME280;61452;40.054;4.110;2024-02-14T19:46:41;102562.72;;;15.66;100.00
73240;BME280;61452;40.054;4.110;2024-02-14T19:51:43;102556.50;;;15.67;100.00
73240;BME280;61452;40.054;4.110;2024-02-14T19:56:46;102557.28;;;15.69;100.00
73240;BME280;61452;40.054;4.110;2024-02-14T20:01:48;102564.44;;;15.67;100.00
73240;BME280;61452;40.054;4.110;2024-02-14T20:06:50;102554.72;;;15.67;100.00
73240;BME280;61452;40.054;4.110;2024-02-14T20:11:57;102562.78;;;15.64;100.00
73240;BME280;61452;40.054;4.110;2024-02-14T20:16:59;102575.03;;;15.67;100.00
73240;BME280;61452;40.054;4.110;2024-02-14T20:22:03;102578.38;;;15.70;100.00
73240;BME280;61452;40.054;4.110;2024-02-14T20:27:05;102570.41;;;15.72;100.00
73240;BME280;61452;40.054;4.110;2024-02-14T20:32:07;102563.38;;;15.71;100.00
73240;BME280;61452;40.054;4.110;2024-02-14T20:37:10;102560.78;;;15.69;100.00
73240;BME280;61452;40.054;4.110;2024-02-14T20:42:12;102562.66;;;15.67;100.00
73240;BME280;61452;40.054;4.110;2024-02-14T20:47:16;102555.50;;;15.69;100.00
73240;BME280;61452;40.054;4.110;2024-02-14T20:52:18;102547.63;;;15.68;100.00
73240;BME280;61452;40.054;4.110;2024-02-14T20:57:21;102542.28;;;15.69;100.00
73240;BME280;61452;40.054;4.110;2024-02-14T21:02:23;102544.00;;;15.70;100.00
73240;BME280;61452;40.054;4.110;2024-02-14T21:07:25;102538.03;;;15.65;100.00
73240;BME280;61452;40.054;4.110;2024-02-14T21:12:28;102539.78;;;15.66;100.00
73240;BME280;61452;40.054;4.110;2024-02-14T21:17:30;102536.22;;;15.67;100.00
73240;BME280;61452;40.054;4.110;2024-02-14T21:22:33;102533.47;;;15.69;100.00
73240;BME280;61452;40.054;4.110;2024-02-14T21:27:37;102530.81;;;15.69;100.00
73240;BME280;61452;40.054;4.110;2024-02-14T21:32:39;102529.09;;;15.68;100.00
73240;BME280;61452;40.054;4.110;2024-02-14T21:37:42;102518.53;;;15.68;100.00
73240;BME280;61452;40.054;4.110;2024-02-14T21:42:44;102515.03;;;15.67;100.00
73240;BME280;61452;40.054;4.110;2024-02-14T21:47:46;102514.19;;;15.67;100.00
73240;BME280;61452;40.054;4.110;2024-02-14T21:52:48;102502.75;;;15.66;100.00
73240;BME280;61452;40.054;4.110;2024-02-14T21:57:50;102487.59;;;15.70;100.00
73240;BME280;61452;40.054;4.110;2024-02-14T22:02:52;102491.25;;;15.67;100.00
73240;BME280;61452;40.054;4.110;2024-02-14T22:07:58;102490.38;;;15.67;100.00
73240;BME280;61452;40.054;4.110;2024-02-14T22:13:02;102478.84;;;15.68;100.00
73240;BME280;61452;40.054;4.110;2024-02-14T22:18:04;102473.56;;;15.68;100.00
73240;BME280;61452;40.054;4.110;2024-02-14T22:23:09;102472.63;;;15.69;100.00
73240;BME280;61452;40.054;4.110;2024-02-14T22:28:11;102466.41;;;15.70;100.00
73240;BME280;61452;40.054;4.110;2024-02-14T22:33:14;102458.81;;;15.62;100.00
73240;BME280;61452;40.054;4.110;2024-02-14T22:38:17;102462.19;;;15.66;100.00
73240;BME280;61452;40.054;4.110;2024-02-14T22:43:19;102462.97;;;15.68;100.00
73240;BME280;61452;40.054;4.110;2024-02-14T22:48:21;102453.25;;;15.68;100.00
73240;BME280;61452;40.054;4.110;2024-02-14T22:53:23;102468.19;;;15.69;100.00
73240;BME280;61452;40.054;4.110;2024-02-14T22:58:25;102471.78;;;15.68;100.00
73240;BME280;61452;40.054;4.110;2024-02-14T23:03:28;102464.84;;;15.66;100.00
73240;BME280;61452;40.054;4.110;2024-02-14T23:08:30;102480.66;;;15.67;100.00
73240;BME280;61452;40.054;4.110;2024-02-14T23:13:32;102463.91;;;15.67;100.00
73240;BME280;61452;40.054;4.110;2024-02-14T23:18:34;102464.69;;;15.69;100.00
73240;BME280;61452;40.054;4.110;2024-02-14T23:23:36;102455.91;;;15.68;100.00
73240;BME280;61452;40.054;4.110;2024-02-14T23:28:38;102456.91;;;15.66;100.00
73240;BME280;61452;40.054;4.110;2024-02-14T23:33:42;102460.47;;;15.65;100.00
73240;BME280;61452;40.054;4.110;2024-02-14T23:38:44;102457.78;;;15.66;100.00
73240;BME280;61452;40.054;4.110;2024-02-14T23:43:46;102455.91;;;15.68;100.00
73240;BME280;61452;40.054;4.110;2024-02-14T23:48:49;102460.31;;;15.68;100.00
73240;BME280;61452;40.054;4.110;2024-02-14T23:53:52;102455.13;;;15.66;100.00
73240;BME280;61452;40.054;4.110;2024-02-14T23:58:54;102455.25;;;15.63;100.00
